createdAt,value
2023-05-06T00:00:57.849Z,100.00
2023-05-06T00:02:05.854Z,100.00
2023-05-06T00:03:24.481Z,100.00
2023-05-06T00:05:50.937Z,100.00
2023-05-06T00:07:05.798Z,100.00
2023-05-06T00:08:17.307Z,100.00
2023-05-06T00:10:45.143Z,100.00
2023-05-06T00:12:05.782Z,100.00
2023-05-06T00:13:11.739Z,100.00
2023-05-06T00:15:40.727Z,100.00
2023-05-06T00:17:05.796Z,100.00
2023-05-06T00:18:07.096Z,100.00
2023-05-06T00:20:33.504Z,100.00
2023-05-06T00:22:05.794Z,100.00
2023-05-06T00:22:59.887Z,100.00
2023-05-06T00:25:26.223Z,100.00
2023-05-06T00:27:05.780Z,100.00
2023-05-06T00:27:53.195Z,100.00
2023-05-06T00:30:19.627Z,100.00
2023-05-06T00:32:05.852Z,100.00
2023-05-06T00:32:46.001Z,100.00
2023-05-06T00:35:12.647Z,100.00
2023-05-06T00:37:05.814Z,100.00
2023-05-06T00:37:39.039Z,100.00
2023-05-06T00:40:06.067Z,100.00
2023-05-06T00:42:05.824Z,100.00
2023-05-06T00:42:33.274Z,100.00
2023-05-06T00:44:59.599Z,100.00
2023-05-06T00:47:05.793Z,100.00
2023-05-06T00:47:26.445Z,100.00
2023-05-06T00:49:53.040Z,100.00
2023-05-06T00:52:05.792Z,100.00
2023-05-06T00:52:20.009Z,100.00
2023-05-06T00:54:46.457Z,100.00
2023-05-06T00:57:05.813Z,100.00
2023-05-06T00:57:14.954Z,100.00
2023-05-06T00:59:42.268Z,100.00
2023-05-06T01:02:05.877Z,100.00
2023-05-06T01:02:09.363Z,100.00
2023-05-06T01:04:36.179Z,100.00
2023-05-06T01:07:22.540Z,100.00
2023-05-06T01:07:22.683Z,100.00
2023-05-06T01:10:13.368Z,100.00
2023-05-06T01:12:05.777Z,100.00
2023-05-06T01:13:09.326Z,100.00
2023-05-06T01:15:43.069Z,100.00
2023-05-06T01:17:05.832Z,100.00
2023-05-06T01:18:12.864Z,100.00
2023-05-06T01:20:41.926Z,100.00
2023-05-06T01:22:05.784Z,100.00
2023-05-06T01:23:13.055Z,100.00
2023-05-06T01:25:39.537Z,100.00
2023-05-06T01:27:05.830Z,100.00
2023-05-06T01:28:10.147Z,100.00
2023-05-06T01:30:46.677Z,100.00
2023-05-06T01:32:05.800Z,100.00
2023-05-06T01:33:27.473Z,100.00
2023-05-06T01:36:12.886Z,100.00
2023-05-06T01:37:05.816Z,100.00
2023-05-06T01:39:09.106Z,100.00
2023-05-06T01:41:38.830Z,100.00
2023-05-06T01:42:05.882Z,100.00
2023-05-06T01:44:07.064Z,100.00
2023-05-06T01:46:34.054Z,100.00
2023-05-06T01:47:05.835Z,100.00
2023-05-06T01:49:04.545Z,100.00
2023-05-06T01:51:33.948Z,100.00
2023-05-06T01:52:05.790Z,100.00
2023-05-06T01:54:01.228Z,100.00
2023-05-06T01:56:30.140Z,100.00
2023-05-06T01:57:05.789Z,100.00
2023-05-06T01:58:59.258Z,100.00
2023-05-06T02:01:25.961Z,100.00
2023-05-06T02:02:05.937Z,100.00
2023-05-06T02:03:52.458Z,100.00
2023-05-06T02:06:19.045Z,100.00
2023-05-06T02:07:05.824Z,100.00
2023-05-06T02:08:45.420Z,100.00
2023-05-06T02:11:13.916Z,100.00
2023-05-06T02:12:05.853Z,100.00
2023-05-06T02:13:40.284Z,100.00
2023-05-06T02:16:07.292Z,100.00
2023-05-06T02:17:05.848Z,100.00
2023-05-06T02:18:33.713Z,100.00
2023-05-06T02:21:00.203Z,100.00
2023-05-06T02:22:05.813Z,100.00
2023-05-06T02:23:26.622Z,100.00
2023-05-06T02:25:53.173Z,100.00
2023-05-06T02:27:05.926Z,100.00
2023-05-06T02:28:19.503Z,100.00
2023-05-06T02:30:46.024Z,100.00
2023-05-06T02:32:05.852Z,100.00
2023-05-06T02:33:12.382Z,100.00
2023-05-06T02:35:38.715Z,100.00
2023-05-06T02:37:05.864Z,100.00
2023-05-06T02:38:05.074Z,100.00
2023-05-06T02:40:31.410Z,100.00
2023-05-06T02:42:05.826Z,100.00
2023-05-06T02:42:57.815Z,100.00
2023-05-06T02:45:24.178Z,100.00
2023-05-06T02:47:05.868Z,100.00
2023-05-06T02:47:50.579Z,100.00
2023-05-06T02:50:17.099Z,100.00
2023-05-06T02:52:05.836Z,100.00
2023-05-06T02:52:43.437Z,100.00
2023-05-06T02:55:10.120Z,100.00
2023-05-06T02:57:05.874Z,100.00
2023-05-06T02:57:39.114Z,100.00
2023-05-06T03:00:06.476Z,100.00
2023-05-06T03:02:05.997Z,100.00
2023-05-06T03:02:32.955Z,100.00
2023-05-06T03:04:59.314Z,100.00
2023-05-06T03:07:05.906Z,100.00
2023-05-06T03:07:25.800Z,100.00
2023-05-06T03:09:52.119Z,100.00
2023-05-06T03:12:05.919Z,100.00
2023-05-06T03:12:18.438Z,100.00
2023-05-06T03:14:44.812Z,100.00
2023-05-06T03:17:05.832Z,100.00
2023-05-06T03:17:11.239Z,100.00
2023-05-06T03:19:37.678Z,100.00
2023-05-06T03:22:04.048Z,100.00
2023-05-06T03:22:05.899Z,100.00
2023-05-06T03:24:30.431Z,100.00
2023-05-06T03:26:58.327Z,100.00
2023-05-06T03:27:05.896Z,100.00
2023-05-06T03:29:24.790Z,100.00
2023-05-06T03:31:51.412Z,100.00
2023-05-06T03:32:05.912Z,100.00
2023-05-06T03:34:17.838Z,100.00
2023-05-06T03:36:45.553Z,100.00
2023-05-06T03:37:05.852Z,100.00
2023-05-06T03:39:12.004Z,100.00
2023-05-06T03:41:38.502Z,100.00
2023-05-06T03:42:07.862Z,100.00
2023-05-06T03:44:05.216Z,100.00
2023-05-06T03:46:32.569Z,100.00
2023-05-06T03:47:05.848Z,100.00
2023-05-06T03:49:00.591Z,100.00
2023-05-06T03:51:27.593Z,100.00
2023-05-06T03:52:05.856Z,100.00
2023-05-06T03:53:54.974Z,100.00
2023-05-06T03:56:22.132Z,100.00
2023-05-06T03:57:05.840Z,100.00
2023-05-06T03:58:48.562Z,100.00
2023-05-06T04:01:14.955Z,100.00
2023-05-06T04:02:05.956Z,100.00
2023-05-06T04:03:41.475Z,100.00
2023-05-06T04:06:08.129Z,100.00
2023-05-06T04:07:05.855Z,100.00
2023-05-06T04:08:34.467Z,100.00
2023-05-06T04:11:07.997Z,100.00
2023-05-06T04:12:05.867Z,100.00
2023-05-06T04:13:34.972Z,100.00
2023-05-06T04:16:01.702Z,100.00
2023-05-06T04:17:05.832Z,100.00
2023-05-06T04:18:28.161Z,100.00
2023-05-06T04:20:54.630Z,100.00
2023-05-06T04:22:05.859Z,100.00
2023-05-06T04:23:21.576Z,100.00
2023-05-06T04:25:50.446Z,100.00
2023-05-06T04:27:05.857Z,100.00
2023-05-06T04:28:17.473Z,100.00
2023-05-06T04:30:44.846Z,100.00
2023-05-06T04:32:05.882Z,100.00
2023-05-06T04:33:14.028Z,100.00
2023-05-06T04:35:41.053Z,100.00
2023-05-06T04:37:05.873Z,100.00
2023-05-06T04:38:07.530Z,100.00
2023-05-06T04:40:36.481Z,100.00
2023-05-06T04:42:05.873Z,100.00
2023-05-06T04:43:02.930Z,100.00
2023-05-06T04:45:29.717Z,100.00
2023-05-06T04:47:05.916Z,100.00
2023-05-06T04:47:56.239Z,100.00
2023-05-06T04:50:22.607Z,100.00
2023-05-06T04:52:05.867Z,100.00
2023-05-06T04:52:48.971Z,100.00
2023-05-06T04:55:15.441Z,100.00
2023-05-06T04:57:05.904Z,100.00
2023-05-06T04:57:44.278Z,100.00
2023-05-06T05:00:11.052Z,100.00
2023-05-06T05:02:06.009Z,100.00
2023-05-06T05:02:37.715Z,100.00
2023-05-06T05:05:04.414Z,100.00
2023-05-06T05:07:05.885Z,100.00
2023-05-06T05:07:30.798Z,100.00
2023-05-06T05:09:57.174Z,100.00
2023-05-06T05:12:05.907Z,100.00
2023-05-06T05:12:23.497Z,100.00
2023-05-06T05:14:49.828Z,100.00
2023-05-06T05:17:05.992Z,100.00
2023-05-06T05:17:16.300Z,100.00
2023-05-06T05:19:42.857Z,100.00
2023-05-06T05:22:05.883Z,100.00
2023-05-06T05:22:09.190Z,100.00
2023-05-06T05:24:35.598Z,100.00
2023-05-06T05:27:02.145Z,100.00
2023-05-06T05:27:05.885Z,100.00
2023-05-06T05:29:28.599Z,100.00
2023-05-06T05:31:55.012Z,100.00
2023-05-06T05:32:05.887Z,100.00
2023-05-06T05:34:21.445Z,100.00
2023-05-06T05:36:50.170Z,100.00
2023-05-06T05:37:05.869Z,100.00
2023-05-06T05:39:16.543Z,100.00
2023-05-06T05:41:42.922Z,100.00
2023-05-06T05:42:05.905Z,100.00
2023-05-06T05:44:09.277Z,100.00
2023-05-06T05:46:36.103Z,100.00
2023-05-06T05:47:05.886Z,100.00
2023-05-06T05:49:02.441Z,100.00
2023-05-06T05:51:28.798Z,100.00
2023-05-06T05:52:05.877Z,100.00
2023-05-06T05:53:55.192Z,100.00
2023-05-06T05:56:21.586Z,100.00
2023-05-06T05:57:05.857Z,100.00
2023-05-06T05:58:47.975Z,100.00
2023-05-06T06:01:14.612Z,100.00
2023-05-06T06:02:05.988Z,100.00
2023-05-06T06:03:41.724Z,100.00
2023-05-06T06:06:08.405Z,100.00
2023-05-06T06:07:05.875Z,100.00
2023-05-06T06:08:34.970Z,100.00
2023-05-06T06:11:05.658Z,100.00
2023-05-06T06:12:05.893Z,100.00
2023-05-06T06:13:32.404Z,100.00
2023-05-06T06:15:59.161Z,100.00
2023-05-06T06:17:05.914Z,100.00
2023-05-06T06:18:25.534Z,100.00
2023-05-06T06:20:53.467Z,100.00
2023-05-06T06:22:05.874Z,100.00
2023-05-06T06:23:20.884Z,100.00
2023-05-06T06:25:47.352Z,100.00
2023-05-06T06:27:05.858Z,100.00
2023-05-06T06:28:13.840Z,100.00
2023-05-06T06:30:40.800Z,100.00
2023-05-06T06:32:06.061Z,100.00
2023-05-06T06:33:07.345Z,100.00
2023-05-06T06:35:33.857Z,100.00
2023-05-06T06:37:07.429Z,100.00
2023-05-06T06:38:00.263Z,100.00
2023-05-06T06:40:29.062Z,100.00
2023-05-06T06:42:05.962Z,100.00
2023-05-06T06:42:55.449Z,100.00
2023-05-06T06:45:23.341Z,100.00
2023-05-06T06:47:05.987Z,100.00
2023-05-06T06:47:49.981Z,100.00
2023-05-06T06:50:16.417Z,100.00
2023-05-06T06:52:06.040Z,100.00
2023-05-06T06:52:43.073Z,100.00
2023-05-06T06:55:10.093Z,100.00
2023-05-06T06:57:06.028Z,100.00
2023-05-06T06:57:37.877Z,100.00
2023-05-06T07:00:05.078Z,100.00
2023-05-06T07:02:06.085Z,100.00
2023-05-06T07:02:31.593Z,100.00
2023-05-06T07:04:58.142Z,100.00
2023-05-06T07:07:06.065Z,100.00
2023-05-06T07:07:24.485Z,100.00
2023-05-06T07:09:50.833Z,100.00
2023-05-06T07:12:06.097Z,100.00
2023-05-06T07:12:17.266Z,100.00
2023-05-06T07:14:43.646Z,100.00
2023-05-06T07:17:06.284Z,100.00
2023-05-06T07:17:10.239Z,100.00
2023-05-06T07:19:36.823Z,100.00
2023-05-06T07:22:03.267Z,100.00
2023-05-06T07:22:06.161Z,100.00
2023-05-06T07:24:29.704Z,100.00
2023-05-06T07:26:56.542Z,100.00
2023-05-06T07:27:06.164Z,100.00
2023-05-06T07:29:22.940Z,98.67
2023-05-06T07:31:49.269Z,98.41
2023-05-06T07:32:06.263Z,98.41
2023-05-06T07:34:15.651Z,97.00
2023-05-06T07:36:43.313Z,95.39
2023-05-06T07:37:06.279Z,95.39
2023-05-06T07:39:10.832Z,93.06
2023-05-06T07:41:37.296Z,91.02
2023-05-06T07:42:06.319Z,91.02
2023-05-06T07:44:04.054Z,89.31
2023-05-06T07:46:30.742Z,87.41
2023-05-06T07:47:06.491Z,87.41
2023-05-06T07:48:57.225Z,86.41
2023-05-06T07:51:23.588Z,84.26
2023-05-06T07:52:06.405Z,84.26
2023-05-06T07:53:49.916Z,83.62
2023-05-06T07:56:17.872Z,82.00
2023-05-06T07:57:06.433Z,82.00
2023-05-06T07:58:44.248Z,80.21
2023-05-06T08:01:10.694Z,80.30
2023-05-06T08:02:06.555Z,80.30
2023-05-06T08:03:37.261Z,79.49
2023-05-06T08:06:03.958Z,78.92
2023-05-06T08:07:06.425Z,78.92
2023-05-06T08:08:30.335Z,78.95
2023-05-06T08:10:59.877Z,78.41
2023-05-06T08:12:06.480Z,78.41
2023-05-06T08:13:27.954Z,77.79
2023-05-06T08:15:55.253Z,77.59
2023-05-06T08:17:06.546Z,77.59
2023-05-06T08:18:23.102Z,76.43
2023-05-06T08:20:50.173Z,76.24
2023-05-06T08:22:06.521Z,76.24
2023-05-06T08:23:16.726Z,74.90
2023-05-06T08:25:43.082Z,73.46
2023-05-06T08:27:06.604Z,73.46
2023-05-06T08:28:09.408Z,72.79
2023-05-06T08:30:36.558Z,72.82
2023-05-06T08:32:06.783Z,72.82
2023-05-06T08:33:03.095Z,71.08
2023-05-06T08:35:29.499Z,71.65
2023-05-06T08:37:06.662Z,71.65
2023-05-06T08:37:55.934Z,71.11
2023-05-06T08:40:23.363Z,69.04
2023-05-06T08:42:06.683Z,69.04
2023-05-06T08:42:50.785Z,69.69
2023-05-06T08:45:18.117Z,69.58
2023-05-06T08:47:06.705Z,69.58
2023-05-06T08:47:44.668Z,69.62
2023-05-06T08:50:11.686Z,68.20
2023-05-06T08:52:06.736Z,68.20
2023-05-06T08:52:41.147Z,67.64
2023-05-06T08:55:09.539Z,66.47
2023-05-06T08:57:06.781Z,66.47
2023-05-06T08:57:37.094Z,65.63
2023-05-06T09:00:04.851Z,66.12
2023-05-06T09:02:06.921Z,66.12
2023-05-06T09:02:31.337Z,65.89
2023-05-06T09:04:57.701Z,67.88
2023-05-06T09:07:06.890Z,67.88
2023-05-06T09:07:24.218Z,67.29
2023-05-06T09:09:51.597Z,67.05
2023-05-06T09:12:06.876Z,67.05
2023-05-06T09:12:18.483Z,66.27
2023-05-06T09:14:46.583Z,66.33
2023-05-06T09:17:07.033Z,66.33
2023-05-06T09:17:28.168Z,65.31
2023-05-06T09:19:59.721Z,64.15
2023-05-06T09:22:06.888Z,64.15
2023-05-06T09:22:27.859Z,63.92
2023-05-06T09:24:58.179Z,61.67
2023-05-06T09:27:08.402Z,61.67
2023-05-06T09:27:27.000Z,63.16
2023-05-06T09:30:20.071Z,62.99
2023-05-06T09:32:06.978Z,62.99
2023-05-06T09:32:49.759Z,61.83
2023-05-06T09:35:16.151Z,61.42
2023-05-06T09:37:07.030Z,61.42
2023-05-06T09:37:42.494Z,59.27
2023-05-06T09:40:09.357Z,59.00
2023-05-06T09:42:07.043Z,59.00
2023-05-06T09:42:36.030Z,59.67
2023-05-06T09:45:02.565Z,59.96
2023-05-06T09:47:07.070Z,59.96
2023-05-06T09:47:37.996Z,58.18
2023-05-06T09:50:04.839Z,58.64
2023-05-06T09:52:07.109Z,58.64
2023-05-06T09:52:31.501Z,59.85
2023-05-06T09:54:58.447Z,59.53
2023-05-06T09:57:07.140Z,59.53
2023-05-06T09:57:28.599Z,60.15
2023-05-06T09:59:55.575Z,60.14
2023-05-06T10:02:07.225Z,60.14
2023-05-06T10:02:23.548Z,60.61
2023-05-06T10:04:51.035Z,61.13
2023-05-06T10:07:07.230Z,61.13
2023-05-06T10:07:22.772Z,59.81
2023-05-06T10:09:51.314Z,59.55
2023-05-06T10:12:07.228Z,59.55
2023-05-06T10:12:18.882Z,58.11
2023-05-06T10:14:45.222Z,58.44
2023-05-06T10:17:07.251Z,58.44
2023-05-06T10:17:13.051Z,59.14
2023-05-06T10:19:41.833Z,57.74
2023-05-06T10:22:34.239Z,56.83
2023-05-06T10:22:34.392Z,56.83
2023-05-06T10:25:19.197Z,56.25
2023-05-06T10:27:07.280Z,56.25
2023-05-06T10:27:48.867Z,54.60
2023-05-06T10:30:18.952Z,54.08
2023-05-06T10:32:07.331Z,54.08
2023-05-06T10:32:46.437Z,52.00
2023-05-06T10:35:22.509Z,52.82
2023-05-06T10:37:07.337Z,52.82
2023-05-06T10:37:51.560Z,54.16
2023-05-06T10:40:19.044Z,54.41
2023-05-06T10:42:07.349Z,54.41
2023-05-06T10:42:48.102Z,54.48
2023-05-06T10:45:16.477Z,53.63
2023-05-06T10:47:07.367Z,53.63
2023-05-06T10:47:55.443Z,52.53
2023-05-06T10:50:26.674Z,50.84
2023-05-06T10:52:07.374Z,50.84
2023-05-06T10:53:02.354Z,52.84
2023-05-06T10:55:37.596Z,53.56
2023-05-06T10:57:07.399Z,53.56
2023-05-06T10:58:11.832Z,52.45
2023-05-06T11:03:13.817Z,52.61
2023-05-06T11:05:51.386Z,51.83
2023-05-06T11:07:07.474Z,51.83
2023-05-06T11:08:23.330Z,52.05
2023-05-06T11:10:49.722Z,50.83
2023-05-06T11:12:07.527Z,50.83
2023-05-06T11:13:24.515Z,48.43
2023-05-06T11:15:51.966Z,49.20
2023-05-06T11:17:07.689Z,49.20
2023-05-06T11:18:24.079Z,47.06
2023-05-06T11:20:51.362Z,50.83
2023-05-06T11:22:07.565Z,50.83
2023-05-06T11:23:20.520Z,52.37
2023-05-06T11:25:47.697Z,50.94
2023-05-06T11:27:07.600Z,50.94
2023-05-06T11:28:14.964Z,50.83
2023-05-06T11:30:43.301Z,50.54
2023-05-06T11:32:07.656Z,50.54
2023-05-06T11:33:19.063Z,49.94
2023-05-06T11:35:45.646Z,50.16
2023-05-06T11:37:07.611Z,50.16
2023-05-06T11:38:12.158Z,48.44
2023-05-06T11:40:40.910Z,48.46
2023-05-06T11:42:07.649Z,48.46
2023-05-06T11:43:14.499Z,47.73
2023-05-06T11:45:45.686Z,48.69
2023-05-06T11:47:07.774Z,48.69
2023-05-06T11:48:16.247Z,50.58
2023-05-06T11:50:49.343Z,47.01
2023-05-06T11:52:07.708Z,47.01
2023-05-06T11:53:21.161Z,47.97
2023-05-06T11:55:48.566Z,47.53
2023-05-06T11:57:07.753Z,47.53
2023-05-06T11:58:35.202Z,50.01
2023-05-06T12:01:03.297Z,48.74
2023-05-06T12:02:07.920Z,48.74
2023-05-06T12:03:31.395Z,50.26
2023-05-06T12:05:58.231Z,49.98
2023-05-06T12:07:07.780Z,49.98
2023-05-06T12:08:31.701Z,49.94
2023-05-06T12:11:04.256Z,49.14
2023-05-06T12:12:07.848Z,49.14
2023-05-06T12:13:30.866Z,50.28
2023-05-06T12:15:59.755Z,50.59
2023-05-06T12:17:07.881Z,50.59
2023-05-06T12:18:27.479Z,50.48
2023-05-06T12:20:55.046Z,51.73
2023-05-06T12:22:07.893Z,51.73
2023-05-06T12:23:21.979Z,50.51
2023-05-06T12:26:06.645Z,49.04
2023-05-06T12:27:07.908Z,49.04
2023-05-06T12:28:35.326Z,49.83
2023-05-06T12:31:21.276Z,49.58
2023-05-06T12:32:08.221Z,49.58
2023-05-06T12:33:51.425Z,49.75
2023-05-06T12:36:18.659Z,49.09
2023-05-06T12:37:08.035Z,49.09
2023-05-06T12:39:01.088Z,48.09
2023-05-06T12:41:42.179Z,48.56
2023-05-06T12:42:08.059Z,48.56
2023-05-06T12:44:34.303Z,48.79
2023-05-06T12:47:09.436Z,49.83
2023-05-06T12:47:09.653Z,49.83
2023-05-06T12:49:57.935Z,49.80
2023-05-06T12:52:08.154Z,49.80
2023-05-06T12:52:29.739Z,49.72
2023-05-06T12:54:56.591Z,49.84
2023-05-06T12:57:08.196Z,49.84
2023-05-06T12:57:23.318Z,50.96
2023-05-06T12:59:50.083Z,48.85
2023-05-06T13:02:08.299Z,48.85
2023-05-06T13:02:16.581Z,49.70
2023-05-06T13:04:44.129Z,49.08
2023-05-06T13:07:08.226Z,49.08
2023-05-06T13:07:10.603Z,48.87
2023-05-06T13:09:36.948Z,50.79
2023-05-06T13:12:05.008Z,49.90
2023-05-06T13:12:08.261Z,49.90
2023-05-06T13:14:31.553Z,49.10
2023-05-06T13:17:00.937Z,48.53
2023-05-06T13:17:08.388Z,48.53
2023-05-06T13:19:32.945Z,48.92
2023-05-06T13:22:00.500Z,48.47
2023-05-06T13:22:08.341Z,48.47
2023-05-06T13:24:27.235Z,47.65
2023-05-06T13:26:53.795Z,48.82
2023-05-06T13:27:08.340Z,48.82
2023-05-06T13:29:20.193Z,50.93
2023-05-06T13:31:46.557Z,50.49
2023-05-06T13:32:08.967Z,50.49
2023-05-06T13:34:12.959Z,51.02
2023-05-06T13:36:39.348Z,52.59
2023-05-06T13:37:08.440Z,52.59
2023-05-06T13:39:05.792Z,51.35
2023-05-06T13:41:32.744Z,52.75
2023-05-06T13:42:08.668Z,52.75
2023-05-06T13:43:59.367Z,51.52
2023-05-06T13:46:27.137Z,51.76
2023-05-06T13:47:08.437Z,51.76
2023-05-06T13:48:53.644Z,52.38
2023-05-06T13:51:20.083Z,51.66
2023-05-06T13:52:08.636Z,51.66
2023-05-06T13:53:46.403Z,51.68
2023-05-06T13:56:12.792Z,52.47
2023-05-06T13:57:08.520Z,52.47
2023-05-06T13:58:39.448Z,52.26
2023-05-06T14:01:06.075Z,51.92
2023-05-06T14:02:09.787Z,51.92
2023-05-06T14:03:32.508Z,52.94
2023-05-06T14:05:59.043Z,53.83
2023-05-06T14:07:08.686Z,53.83
2023-05-06T14:08:25.625Z,53.95
2023-05-06T14:10:51.936Z,54.45
2023-05-06T14:12:08.656Z,54.45
2023-05-06T14:13:18.299Z,54.79
2023-05-06T14:15:44.755Z,55.49
2023-05-06T14:17:08.685Z,55.49
2023-05-06T14:18:11.248Z,55.47
2023-05-06T14:20:37.694Z,57.21
2023-05-06T14:22:08.645Z,57.21
2023-05-06T14:23:07.024Z,57.53
2023-05-06T14:25:33.396Z,60.19
2023-05-06T14:27:08.863Z,60.19
2023-05-06T14:27:59.823Z,62.79
2023-05-06T14:30:26.264Z,65.23
2023-05-06T14:32:08.714Z,65.23
2023-05-06T14:32:52.617Z,66.83
2023-05-06T14:35:19.099Z,69.91
2023-05-06T14:37:08.846Z,69.91
2023-05-06T14:37:45.453Z,71.28
2023-05-06T14:40:12.086Z,71.48
2023-05-06T14:42:08.807Z,71.48
2023-05-06T14:42:38.566Z,72.25
2023-05-06T14:45:05.975Z,72.93
2023-05-06T14:47:08.842Z,72.93
2023-05-06T14:47:32.515Z,75.20
2023-05-06T14:49:58.865Z,76.40
2023-05-06T14:52:08.875Z,76.40
2023-05-06T14:52:25.293Z,76.97
2023-05-06T14:54:51.659Z,78.18
2023-05-06T14:57:08.905Z,78.18
2023-05-06T14:57:18.055Z,78.86
2023-05-06T14:59:44.485Z,77.85
2023-05-06T15:02:08.902Z,77.85
2023-05-06T15:02:11.080Z,77.61
2023-05-06T15:04:37.481Z,76.57
2023-05-06T15:07:04.330Z,76.12
2023-05-06T15:07:08.924Z,76.12
2023-05-06T15:09:31.029Z,76.41
2023-05-06T15:11:57.816Z,78.44
2023-05-06T15:12:08.988Z,78.44
2023-05-06T15:14:24.366Z,80.03
2023-05-06T15:16:52.075Z,79.31
2023-05-06T15:17:09.011Z,79.31
2023-05-06T15:19:18.464Z,80.43
2023-05-06T15:21:44.804Z,79.63
2023-05-06T15:22:09.116Z,79.63
2023-05-06T15:24:11.205Z,80.12
2023-05-06T15:26:37.519Z,79.52
2023-05-06T15:27:09.072Z,79.52
2023-05-06T15:29:05.200Z,81.09
2023-05-06T15:31:32.402Z,81.29
2023-05-06T15:32:09.181Z,81.29
2023-05-06T15:34:00.760Z,82.97
2023-05-06T15:36:27.670Z,84.13
2023-05-06T15:37:09.164Z,84.13
2023-05-06T15:39:00.374Z,86.61
2023-05-06T15:41:28.900Z,87.60
2023-05-06T15:42:09.181Z,87.60
2023-05-06T15:44:00.582Z,88.34
2023-05-06T15:46:28.130Z,86.65
2023-05-06T15:47:09.160Z,86.65
2023-05-06T15:49:17.471Z,86.83
2023-05-06T15:51:40.968Z,89.63
2023-05-06T15:52:09.234Z,89.63
2023-05-06T15:54:07.404Z,91.92
2023-05-06T15:56:39.313Z,92.02
2023-05-06T15:57:09.254Z,92.02
2023-05-06T15:59:08.121Z,90.69
2023-05-06T16:02:08.362Z,87.95
2023-05-06T16:02:25.673Z,87.95
2023-05-06T16:04:21.012Z,85.43
2023-05-06T16:06:47.690Z,86.40
2023-05-06T16:07:09.315Z,86.40
2023-05-06T16:09:14.084Z,85.85
2023-05-06T16:11:40.522Z,87.15
2023-05-06T16:12:09.376Z,87.15
2023-05-06T16:14:07.166Z,89.10
2023-05-06T16:16:33.588Z,89.98
2023-05-06T16:17:09.440Z,89.98
2023-05-06T16:18:59.971Z,90.58
2023-05-06T16:21:27.091Z,90.84
2023-05-06T16:22:09.510Z,90.84
2023-05-06T16:23:53.463Z,90.71
2023-05-06T16:26:19.895Z,91.00
2023-05-06T16:27:09.579Z,91.00
2023-05-06T16:28:46.428Z,91.06
2023-05-06T16:31:12.848Z,89.90
2023-05-06T16:32:09.593Z,89.90
2023-05-06T16:33:39.238Z,89.60
2023-05-06T16:36:06.062Z,91.32
2023-05-06T16:37:09.714Z,91.32
2023-05-06T16:38:32.410Z,89.57
2023-05-06T16:40:58.783Z,86.20
2023-05-06T16:42:09.755Z,86.20
2023-05-06T16:43:25.069Z,86.17
2023-05-06T16:45:51.404Z,84.98
2023-05-06T16:47:09.837Z,84.98
2023-05-06T16:48:18.026Z,83.83
2023-05-06T16:50:44.627Z,84.73
2023-05-06T16:52:09.793Z,84.73
2023-05-06T16:53:11.269Z,85.89
2023-05-06T16:55:37.759Z,85.91
2023-05-06T16:57:09.768Z,85.91
2023-05-06T16:58:04.245Z,84.75
2023-05-06T17:00:31.297Z,85.98
2023-05-06T17:02:10.034Z,85.98
2023-05-06T17:02:57.825Z,86.90
2023-05-06T17:05:24.517Z,87.92
2023-05-06T17:07:09.906Z,87.92
2023-05-06T17:07:51.145Z,87.36
2023-05-06T17:10:17.568Z,87.23
2023-05-06T17:12:09.898Z,87.23
2023-05-06T17:12:43.975Z,85.92
2023-05-06T17:15:11.265Z,86.17
2023-05-06T17:17:10.102Z,86.17
2023-05-06T17:17:37.688Z,86.01
2023-05-06T17:20:05.141Z,85.40
2023-05-06T17:22:10.005Z,85.40
2023-05-06T17:22:31.483Z,85.67
2023-05-06T17:24:57.900Z,86.93
2023-05-06T17:27:10.041Z,86.93
2023-05-06T17:27:24.325Z,88.02
2023-05-06T17:29:51.603Z,88.13
2023-05-06T17:32:10.086Z,88.13
2023-05-06T17:32:19.561Z,88.53
2023-05-06T17:34:46.201Z,88.63
2023-05-06T17:37:10.228Z,88.63
2023-05-06T17:37:12.651Z,88.68
2023-05-06T17:39:39.359Z,88.31
2023-05-06T17:42:05.790Z,88.25
2023-05-06T17:42:10.207Z,88.25
2023-05-06T17:44:33.054Z,88.36
2023-05-06T17:46:59.676Z,87.85
2023-05-06T17:47:10.233Z,87.85
2023-05-06T17:49:26.146Z,88.08
2023-05-06T17:51:52.685Z,88.83
2023-05-06T17:52:10.246Z,88.83
2023-05-06T17:54:19.120Z,89.73
2023-05-06T17:56:50.266Z,91.28
2023-05-06T17:57:10.259Z,91.28
2023-05-06T17:59:18.507Z,92.36
2023-05-06T18:01:45.505Z,94.03
2023-05-06T18:02:10.542Z,94.03
2023-05-06T18:04:12.469Z,94.40
2023-05-06T18:06:41.166Z,95.89
2023-05-06T18:07:10.354Z,95.89
2023-05-06T18:09:08.340Z,96.19
2023-05-06T18:11:35.051Z,96.97
2023-05-06T18:12:10.424Z,96.97
2023-05-06T18:14:01.499Z,97.48
2023-05-06T18:16:28.029Z,98.42
2023-05-06T18:17:10.386Z,98.42
2023-05-06T18:18:54.487Z,100.00
2023-05-06T18:21:21.151Z,100.00
2023-05-06T18:22:10.459Z,100.00
2023-05-06T18:23:48.539Z,100.00
2023-05-06T18:26:27.906Z,100.00
2023-05-06T18:27:10.622Z,100.00
2023-05-06T18:29:06.752Z,100.00
2023-05-06T18:31:33.143Z,100.00
2023-05-06T18:32:10.605Z,100.00
2023-05-06T18:33:59.469Z,100.00
2023-05-06T18:36:28.210Z,100.00
2023-05-06T18:37:10.641Z,100.00
2023-05-06T18:38:54.548Z,100.00
2023-05-06T18:41:21.118Z,100.00
2023-05-06T18:42:10.638Z,100.00
2023-05-06T18:43:47.491Z,100.00
2023-05-06T18:46:13.946Z,100.00
2023-05-06T18:47:10.733Z,100.00
2023-05-06T18:48:40.592Z,100.00
2023-05-06T18:51:13.981Z,100.00
2023-05-06T18:52:10.690Z,100.00
2023-05-06T18:53:40.637Z,100.00
2023-05-06T18:56:07.726Z,100.00
2023-05-06T18:57:10.852Z,100.00
2023-05-06T18:58:38.533Z,100.00
2023-05-06T19:01:06.411Z,100.00
2023-05-06T19:02:10.784Z,100.00
2023-05-06T19:03:37.481Z,100.00
2023-05-06T19:06:07.521Z,100.00
2023-05-06T19:07:10.858Z,100.00
2023-05-06T19:08:33.912Z,100.00
2023-05-06T19:11:01.237Z,100.00
2023-05-06T19:12:10.684Z,100.00
2023-05-06T19:13:28.281Z,100.00
2023-05-06T19:15:54.994Z,100.00
2023-05-06T19:17:10.857Z,100.00
2023-05-06T19:18:21.383Z,100.00
2023-05-06T19:20:47.752Z,100.00
2023-05-06T19:22:10.719Z,100.00
2023-05-06T19:23:14.136Z,100.00
2023-05-06T19:25:40.504Z,100.00
2023-05-06T19:27:10.711Z,100.00
2023-05-06T19:28:07.297Z,100.00
2023-05-06T19:30:35.043Z,100.00
2023-05-06T19:32:10.726Z,100.00
2023-05-06T19:33:02.082Z,100.00
2023-05-06T19:35:28.529Z,100.00
2023-05-06T19:37:10.762Z,100.00
2023-05-06T19:37:56.088Z,100.00
2023-05-06T19:40:22.697Z,100.00
2023-05-06T19:42:10.708Z,100.00
2023-05-06T19:42:49.123Z,100.00
2023-05-06T19:45:18.150Z,100.00
2023-05-06T19:47:10.712Z,100.00
2023-05-06T19:47:45.593Z,100.00
2023-05-06T19:50:12.873Z,100.00
2023-05-06T19:52:10.711Z,100.00
2023-05-06T19:52:39.605Z,100.00
2023-05-06T19:55:06.597Z,100.00
2023-05-06T19:57:10.744Z,100.00
2023-05-06T19:57:33.874Z,100.00
2023-05-06T20:00:04.915Z,100.00
2023-05-06T20:02:10.816Z,100.00
2023-05-06T20:02:32.571Z,100.00
2023-05-06T20:05:00.071Z,100.00
2023-05-06T20:07:10.735Z,100.00
2023-05-06T20:07:26.609Z,100.00
2023-05-06T20:09:55.317Z,100.00
2023-05-06T20:12:10.724Z,100.00
2023-05-06T20:12:22.947Z,100.00
2023-05-06T20:14:49.618Z,100.00
2023-05-06T20:17:10.728Z,100.00
2023-05-06T20:17:16.570Z,100.00
2023-05-06T20:19:42.958Z,100.00
2023-05-06T20:22:09.302Z,100.00
2023-05-06T20:22:10.736Z,100.00
2023-05-06T20:24:36.982Z,100.00
2023-05-06T20:27:03.596Z,100.00
2023-05-06T20:27:10.716Z,100.00
2023-05-06T20:29:29.944Z,100.00
2023-05-06T20:31:56.361Z,100.00
2023-05-06T20:32:10.698Z,100.00
2023-05-06T20:34:22.723Z,100.00
2023-05-06T20:36:49.838Z,100.00
2023-05-06T20:37:10.755Z,100.00
2023-05-06T20:39:16.162Z,100.00
2023-05-06T20:41:42.536Z,100.00
2023-05-06T20:42:11.647Z,100.00
2023-05-06T20:44:09.393Z,100.00
2023-05-06T20:46:36.047Z,100.00
2023-05-06T20:47:10.697Z,100.00
2023-05-06T20:49:02.498Z,100.00
2023-05-06T20:51:28.913Z,100.00
2023-05-06T20:52:10.734Z,100.00
2023-05-06T20:53:56.290Z,100.00
2023-05-06T20:56:24.863Z,100.00
2023-05-06T20:57:10.718Z,100.00
2023-05-06T20:58:57.487Z,100.00
2023-05-06T21:01:25.274Z,100.00